Time;durP1;ratioP1;P1;durP2;ratioP2;P2;SDS_P1;SDS_P2;PMS_P1;PMS_P2;Temp;Humidity;BMP_temperature;BMP_pressure;BME280_temperature;BME280_humidity;BME280_pressure;Samples;Min_cycle;Max_cycle;Signal;HPM_P1;HPM_P2
2022/03/09 00:00:51;;;;;;;10.52;5.47;;;-0.80;99.90;;;;;;7360333;32;20110;-60
2022/03/09 00:04:55;;;;;;;10.90;6.07;;;-0.80;99.90;;;;;;7364019;32;20115;-61
2022/03/09 00:08:58;;;;;;;12.57;5.72;;;-0.80;99.90;;;;;;7357810;32;20131;-60
2022/03/09 00:13:00;;;;;;;11.45;5.93;;;-0.80;99.90;;;;;;7365884;32;20187;-60
2022/03/09 00:17:02;;;;;;;11.73;6.22;;;-0.80;99.90;;;;;;7357385;32;20191;-61
2022/03/09 00:21:05;;;;;;;11.05;5.57;;;-0.90;99.90;;;;;;7360301;32;20171;-62
2022/03/09 00:25:07;;;;;;;11.30;6.40;;;-0.90;99.90;;;;;;7360066;32;20111;-61
2022/03/09 00:29:09;;;;;;;10.13;5.87;;;-0.90;99.90;;;;;;7354640;32;20134;-60
2022/03/09 00:33:11;;;;;;;13.10;6.07;;;-1.00;99.90;;;;;;7358327;32;20554;-60
2022/03/09 00:37:13;;;;;;;8.60;5.53;;;-1.00;99.90;;;;;;7359888;32;20380;-59
2022/03/09 00:41:15;;;;;;;11.05;6.05;;;-1.00;99.90;;;;;;7364526;32;20149;-60
2022/03/09 00:45:17;;;;;;;9.98;5.78;;;-1.00;99.90;;;;;;7360489;32;20180;-60
2022/03/09 00:49:19;;;;;;;10.20;5.40;;;-1.00;99.90;;;;;;7361808;32;20290;-61
2022/03/09 00:53:20;;;;;;;10.02;5.35;;;-1.10;99.90;;;;;;7363042;32;20228;-61
2022/03/09 00:57:22;;;;;;;9.27;5.78;;;-1.10;99.90;;;;;;7362273;32;20127;-61
2022/03/09 01:01:24;;;;;;;12.80;5.90;;;-1.10;99.90;;;;;;7362728;32;20242;-61
2022/03/09 01:05:26;;;;;;;12.75;5.60;;;-1.10;99.90;;;;;;7358147;32;20154;-61
2022/03/09 01:09:28;;;;;;;12.32;5.50;;;-1.10;99.90;;;;;;7355482;32;20104;-62
2022/03/09 01:13:29;;;;;;;9.07;5.07;;;-1.00;99.90;;;;;;7356455;32;20595;-61
2022/03/09 01:17:31;;;;;;;10.32;5.30;;;-1.00;99.90;;;;;;7360797;32;20175;-61
2022/03/09 01:21:34;;;;;;;9.52;4.50;;;-0.90;99.90;;;;;;7358318;32;20205;-60
2022/03/09 01:25:35;;;;;;;7.05;3.92;;;-0.80;99.90;;;;;;7359373;32;20121;-60
2022/03/09 01:29:37;;;;;;;8.70;4.70;;;-0.50;99.90;;;;;;7355406;32;20676;-61
2022/03/09 01:33:39;;;;;;;9.68;4.62;;;-0.50;99.90;;;;;;7353175;32;20227;-62
2022/03/09 01:37:41;;;;;;;8.27;4.28;;;-0.40;99.90;;;;;;7356649;32;20360;-61
2022/03/09 01:41:43;;;;;;;9.73;4.07;;;-0.40;99.90;;;;;;7357466;32;20121;-61
2022/03/09 01:45:45;;;;;;;8.65;4.47;;;-0.40;99.90;;;;;;7365833;32;20142;-62
2022/03/09 01:49:46;;;;;;;7.75;4.25;;;-0.20;99.90;;;;;;7363591;32;20237;-62
2022/03/09 01:53:48;;;;;;;8.70;3.95;;;-0.20;99.90;;;;;;7360079;32;20178;-62
2022/03/09 01:57:50;;;;;;;9.52;3.75;;;0.30;99.90;;;;;;7360556;32;20145;-61
2022/03/09 02:01:52;;;;;;;6.03;3.87;;;0.60;99.90;;;;;;7354684;32;20153;-61
2022/03/09 02:05:54;;;;;;;8.82;4.20;;;0.90;99.90;;;;;;7354575;32;20452;-61
2022/03/09 02:09:56;;;;;;;7.43;3.55;;;1.00;99.90;;;;;;7358304;32;20484;-61
2022/03/09 02:13:57;;;;;;;8.40;3.78;;;1.20;99.90;;;;;;7361401;32;20545;-61
2022/03/09 02:18:00;;;;;;;7.50;3.42;;;1.60;99.90;;;;;;7358263;32;20115;-61
2022/03/09 02:22:04;;;;;;;6.70;3.35;;;1.80;99.90;;;;;;7355703;32;20107;-61
2022/03/09 02:26:06;;;;;;;6.15;3.40;;;1.80;99.90;;;;;;7358073;32;20115;-61
2022/03/09 02:30:24;;;;;;;4.68;3.03;;;2.10;99.90;;;;;;7360666;32;20107;-59
2022/03/09 02:34:26;;;;;;;8.57;3.80;;;2.10;99.90;;;;;;7354873;32;20842;-59
2022/03/09 02:38:27;;;;;;;8.50;3.47;;;2.30;99.90;;;;;;7357881;32;20133;-59
2022/03/09 02:42:29;;;;;;;6.85;3.95;;;2.10;99.90;;;;;;7358835;32;20236;-60
2022/03/09 02:46:31;;;;;;;6.85;3.62;;;2.10;99.90;;;;;;7359634;32;20218;-60
2022/03/09 02:50:33;;;;;;;6.18;3.50;;;2.10;99.90;;;;;;7353511;32;20240;-60
2022/03/09 02:54:34;;;;;;;6.28;3.65;;;2.10;99.90;;;;;;7358083;32;20107;-61
2022/03/09 02:58:36;;;;;;;6.75;3.95;;;2.30;99.90;;;;;;7366636;32;20506;-60
2022/03/09 03:02:38;;;;;;;5.80;3.60;;;2.20;99.90;;;;;;7357257;32;20134;-60
2022/03/09 03:06:40;;;;;;;7.30;3.22;;;2.20;99.90;;;;;;7361634;32;21035;-59
2022/03/09 03:10:42;;;;;;;6.80;3.75;;;2.20;99.90;;;;;;7364142;32;20111;-60
2022/03/09 03:14:44;;;;;;;11.45;3.80;;;2.10;99.90;;;;;;7359994;32;20162;-60
2022/03/09 03:18:45;;;;;;;6.55;3.42;;;2.10;99.90;;;;;;7363378;32;20221;-59
2022/03/09 03:22:47;;;;;;;6.25;3.80;;;2.00;99.90;;;;;;7359515;32;20179;-59
2022/03/09 03:26:49;;;;;;;7.45;3.70;;;2.00;99.90;;;;;;7360908;32;20111;-59
2022/03/09 03:30:51;;;;;;;16.50;4.80;;;2.10;99.90;;;;;;7359387;32;20588;-59
2022/03/09 03:34:53;;;;;;;10.98;3.50;;;2.20;99.90;;;;;;7360599;32;20615;-60
2022/03/09 03:38:55;;;;;;;12.10;3.92;;;2.10;99.90;;;;;;7355319;32;20210;-60
2022/03/09 03:43:11;;;;;;;9.43;3.97;;;2.00;99.90;;;;;;7359169;32;20545;-60
2022/03/09 03:47:13;;;;;;;8.77;3.95;;;2.00;99.90;;;;;;7360653;32;20143;-60
2022/03/09 03:51:15;;;;;;;7.32;3.53;;;1.90;99.90;;;;;;7366208;32;20146;-60
2022/03/09 03:55:17;;;;;;;6.30;3.50;;;1.70;99.90;;;;;;7363705;32;20106;-60
2022/03/09 03:59:25;;;;;;;8.52;3.90;;;1.60;99.90;;;;;;7365569;32;20242;-60
2022/03/09 04:03:27;;;;;;;10.00;3.87;;;1.50;99.90;;;;;;7353744;32;20524;-60
2022/03/09 04:07:28;;;;;;;7.45;3.33;;;1.40;99.90;;;;;;7361456;32;20134;-60
2022/03/09 04:11:30;;;;;;;6.82;4.03;;;1.30;99.90;;;;;;7356956;32;20222;-60
2022/03/09 04:15:33;;;;;;;8.65;3.85;;;1.30;99.90;;;;;;7357108;32;20582;-60
2022/03/09 04:19:38;;;;;;;6.57;3.62;;;1.40;99.90;;;;;;7364006;32;20320;-59
2022/03/09 04:23:40;;;;;;;6.40;3.58;;;1.50;99.90;;;;;;7359873;32;20225;-60
2022/03/09 04:27:43;;;;;;;7.80;4.03;;;1.50;99.90;;;;;;7360696;32;20531;-59
2022/03/09 04:31:44;;;;;;;9.30;3.53;;;1.50;99.90;;;;;;7359999;32;20143;-60
2022/03/09 04:35:46;;;;;;;9.43;3.80;;;1.40;99.90;;;;;;7359735;32;20147;-60
2022/03/09 04:39:48;;;;;;;7.85;3.65;;;1.60;99.90;;;;;;7362149;32;20144;-60
2022/03/09 04:43:50;;;;;;;7.93;3.53;;;1.60;99.90;;;;;;7368415;32;20103;-60
2022/03/09 04:47:52;;;;;;;6.72;3.25;;;1.60;99.90;;;;;;7365609;32;20192;-60
2022/03/09 04:51:54;;;;;;;6.72;4.10;;;1.80;99.90;;;;;;7360604;32;20142;-60
2022/03/09 04:55:55;;;;;;;9.68;3.72;;;1.80;99.90;;;;;;7355242;32;20247;-61
2022/03/09 04:59:57;;;;;;;6.28;3.25;;;2.00;99.90;;;;;;7363233;32;20115;-61
2022/03/09 05:03:59;;;;;;;7.22;3.70;;;2.10;99.90;;;;;;7363748;32;20110;-59
2022/03/09 05:08:01;;;;;;;7.97;4.00;;;2.00;99.90;;;;;;7362336;32;20135;-60
2022/03/09 05:12:03;;;;;;;7.50;3.58;;;2.10;99.90;;;;;;7366110;32;20164;-60
2022/03/09 05:16:07;;;;;;;8.00;4.03;;;2.20;99.90;;;;;;7360450;32;20123;-60
2022/03/09 05:20:14;;;;;;;6.03;3.85;;;2.20;99.90;;;;;;7356727;32;20161;-60
2022/03/09 05:24:16;;;;;;;6.10;3.62;;;2.30;99.90;;;;;;7347561;32;20245;-60
2022/03/09 05:28:18;;;;;;;5.87;3.62;;;2.30;99.90;;;;;;7354912;32;20110;-61
2022/03/09 05:32:20;;;;;;;6.82;3.70;;;2.50;99.90;;;;;;7366425;32;20252;-62
2022/03/09 05:36:22;;;;;;;7.25;3.72;;;2.50;99.90;;;;;;7365060;32;20210;-59
2022/03/09 05:40:24;;;;;;;7.30;3.87;;;2.50;99.90;;;;;;7350987;32;20161;-60
2022/03/09 05:44:25;;;;;;;9.25;3.50;;;2.50;99.90;;;;;;7359934;32;20511;-60
2022/03/09 05:48:27;;;;;;;7.32;3.65;;;2.30;99.90;;;;;;7358358;32;20183;-62
2022/03/09 05:52:29;;;;;;;6.22;3.70;;;2.20;99.90;;;;;;7353708;32;20161;-60
2022/03/09 05:56:31;;;;;;;6.82;4.25;;;2.20;99.90;;;;;;7357338;32;20170;-59
2022/03/09 06:00:33;;;;;;;6.43;3.78;;;2.20;99.90;;;;;;7359079;32;20565;-58
2022/03/09 06:04:34;;;;;;;9.15;4.70;;;2.10;99.90;;;;;;7357864;32;20194;-58
2022/03/09 06:08:36;;;;;;;7.37;4.60;;;2.10;99.90;;;;;;7361304;32;20794;-60
2022/03/09 06:12:41;;;;;;;10.63;3.90;;;2.20;99.90;;;;;;7365422;32;20429;-57
2022/03/09 06:16:43;;;;;;;7.60;4.37;;;2.20;99.90;;;;;;7356687;32;20262;-60
2022/03/09 06:20:45;;;;;;;8.82;4.40;;;2.10;99.90;;;;;;7358385;32;20115;-61
2022/03/09 06:24:48;;;;;;;8.23;4.07;;;2.20;99.90;;;;;;7359957;32;20894;-60
2022/03/09 06:28:50;;;;;;;8.30;4.37;;;2.20;99.90;;;;;;7362142;32;20194;-60
2022/03/09 06:32:51;;;;;;;9.85;3.97;;;2.30;99.90;;;;;;7357365;32;20301;-60
2022/03/09 06:36:53;;;;;;;9.80;4.30;;;2.40;99.90;;;;;;7364033;32;20139;-60
2022/03/09 06:40:55;;;;;;;8.07;4.00;;;2.40;99.90;;;;;;7359721;32;20142;-63
2022/03/09 06:44:57;;;;;;;8.23;4.05;;;2.50;99.90;;;;;;7362509;32;20135;-61
2022/03/09 06:48:59;;;;;;;6.80;4.20;;;2.50;99.90;;;;;;7369048;32;20128;-61
2022/03/09 06:53:01;;;;;;;9.18;4.53;;;2.60;99.90;;;;;;7358717;32;20659;-60
2022/03/09 06:57:03;;;;;;;7.37;3.72;;;2.70;99.90;;;;;;7365473;32;20115;-59
2022/03/09 07:01:04;;;;;;;6.30;3.85;;;2.70;99.90;;;;;;7353569;32;20194;-59
2022/03/09 07:05:09;;;;;;;7.82;4.47;;;2.80;99.90;;;;;;7356890;32;20179;-59
2022/03/09 07:09:11;;;;;;;8.23;4.70;;;2.90;99.90;;;;;;7357256;32;21027;-59
2022/03/09 07:13:13;;;;;;;7.37;4.30;;;3.00;99.90;;;;;;7366172;32;20111;-59
2022/03/09 07:17:15;;;;;;;7.53;3.62;;;3.10;99.90;;;;;;7362219;32;20107;-61
2022/03/09 07:21:17;;;;;;;7.87;4.40;;;3.20;99.90;;;;;;7364759;32;20128;-61
2022/03/09 07:25:19;;;;;;;8.38;3.87;;;3.40;99.90;;;;;;7359139;32;20730;-59
2022/03/09 07:29:20;;;;;;;8.25;4.20;;;3.50;99.90;;;;;;7360338;32;20163;-60
2022/03/09 07:33:22;;;;;;;8.13;4.12;;;3.60;99.90;;;;;;7358640;32;20111;-58
2022/03/09 07:37:24;;;;;;;8.88;4.57;;;3.80;99.70;;;;;;7367093;32;20115;-59
2022/03/09 07:41:26;;;;;;;8.10;4.15;;;3.90;99.80;;;;;;7361131;32;20206;-59
2022/03/09 07:45:27;;;;;;;8.70;4.70;;;4.00;99.50;;;;;;7362561;32;20249;-59
2022/03/09 07:49:33;;;;;;;11.07;4.22;;;4.20;98.50;;;;;;7361164;32;20132;-59
2022/03/09 07:53:42;;;;;;;7.62;4.43;;;4.20;99.30;;;;;;7368920;32;20118;-59
2022/03/09 07:57:44;;;;;;;10.63;4.53;;;4.30;98.30;;;;;;7361504;32;20129;-60
2022/03/09 08:01:46;;;;;;;7.28;3.92;;;4.30;97.40;;;;;;7363023;32;20281;-61
2022/03/09 08:05:48;;;;;;;6.55;4.07;;;4.70;94.80;;;;;;7362692;32;20139;-58
2022/03/09 08:09:50;;;;;;;8.00;4.47;;;4.80;95.30;;;;;;7358435;32;20144;-59
2022/03/09 08:13:51;;;;;;;7.28;4.20;;;5.00;93.10;;;;;;7358269;32;20225;-59
2022/03/09 08:17:53;;;;;;;9.20;4.65;;;5.10;94.00;;;;;;7358222;32;20111;-59
2022/03/09 08:21:55;;;;;;;8.32;4.18;;;5.30;91.60;;;;;;7354236;32;20138;-59
2022/03/09 08:25:57;;;;;;;6.43;4.28;;;5.40;90.30;;;;;;7364071;32;20129;-60
2022/03/09 08:29:59;;;;;;;7.18;4.53;;;5.60;89.50;;;;;;7362520;32;20705;-60
2022/03/09 08:34:00;;;;;;;8.82;4.40;;;5.70;87.40;;;;;;7358044;32;20111;-60
2022/03/09 08:38:02;;;;;;;10.13;4.78;;;5.80;89.00;;;;;;7355928;32;20218;-60
2022/03/09 08:42:04;;;;;;;11.20;4.85;;;5.80;89.40;;;;;;7364543;32;20725;-57
2022/03/09 08:46:14;;;;;;;9.73;4.40;;;6.00;85.10;;;;;;7356197;32;20134;-59
2022/03/09 08:50:16;;;;;;;6.35;4.40;;;6.20;81.70;;;;;;7369282;32;20777;-58
2022/03/09 08:54:33;;;;;;;9.43;4.37;;;6.40;79.00;;;;;;7368566;32;20194;-58
2022/03/09 08:58:35;;;;;;;8.40;4.72;;;6.90;78.00;;;;;;7359339;32;20116;-59
2022/03/09 09:02:37;;;;;;;7.37;4.07;;;7.50;75.10;;;;;;7360606;32;20216;-59
2022/03/09 09:06:39;;;;;;;10.40;4.82;;;8.50;69.30;;;;;;7359987;32;20298;-62
2022/03/09 09:10:41;;;;;;;9.95;5.25;;;9.20;63.20;;;;;;7358494;32;20336;-59
2022/03/09 09:14:42;;;;;;;9.68;5.30;;;9.70;58.90;;;;;;7361161;32;20821;-60
2022/03/09 09:18:44;;;;;;;9.20;5.78;;;10.30;57.00;;;;;;7362103;32;20099;-59
2022/03/09 09:22:46;;;;;;;8.98;5.53;;;10.90;54.60;;;;;;7363566;32;20797;-60
2022/03/09 09:27:08;;;;;;;7.95;5.15;;;11.10;53.20;;;;;;7363276;32;20106;-61
2022/03/09 09:31:27;;;;;;;7.55;4.85;;;11.90;51.20;;;;;;7360933;32;20178;-60
2022/03/09 09:35:29;;;;;;;9.23;5.72;;;12.70;52.40;;;;;;7361040;32;20118;-60
2022/03/09 09:39:50;;;;;;;10.63;5.78;;;13.60;46.80;;;;;;7359534;32;20127;-59
2022/03/09 09:43:52;;;;;;;10.45;6.18;;;13.60;46.90;;;;;;7359393;32;20215;-59
2022/03/09 09:47:54;;;;;;;8.57;5.80;;;13.60;47.00;;;;;;7352181;32;20206;-59
2022/03/09 09:51:56;;;;;;;9.43;6.43;;;13.80;45.40;;;;;;7359852;32;20518;-60
2022/03/09 09:55:58;;;;;;;11.27;6.32;;;14.50;44.00;;;;;;7363167;32;20493;-61
2022/03/09 10:00:00;;;;;;;9.55;5.97;;;14.90;43.40;;;;;;7357818;32;20338;-60
2022/03/09 10:04:03;;;;;;;8.95;5.87;;;15.90;42.30;;;;;;7351804;32;20606;-60
2022/03/09 10:08:05;;;;;;;8.63;6.95;;;17.20;41.10;;;;;;7357543;32;20111;-67
2022/03/09 10:12:09;;;;;;;8.43;6.70;;;18.10;38.80;;;;;;7362316;32;20111;-60
2022/03/09 10:16:20;;;;;;;9.52;6.82;;;18.00;37.80;;;;;;7362479;32;20133;-62
2022/03/09 10:20:29;;;;;;;9.00;7.03;;;18.70;38.10;;;;;;7361861;32;20540;-63
2022/03/09 10:24:35;;;;;;;8.40;6.85;;;18.30;35.50;;;;;;7361888;32;20209;-61
2022/03/09 10:28:53;;;;;;;9.10;7.90;;;19.10;36.90;;;;;;7352234;32;20111;-63
2022/03/09 10:33:08;;;;;;;12.02;7.90;;;17.30;35.20;;;;;;7363114;32;20491;-69
2022/03/09 10:37:10;;;;;;;10.90;7.43;;;18.10;35.20;;;;;;7365517;32;20648;-62
2022/03/09 10:41:12;;;;;;;8.98;7.28;;;19.40;34.10;;;;;;7355699;32;20550;-62
2022/03/09 10:45:17;;;;;;;9.52;7.32;;;19.50;33.90;;;;;;7363019;32;20115;-68
2022/03/09 10:49:23;;;;;;;11.82;8.32;;;17.60;35.50;;;;;;7355651;32;20103;-62
2022/03/09 10:53:42;;;;;;;13.18;7.62;;;16.60;36.10;;;;;;7359747;32;20107;-61
2022/03/09 10:57:44;;;;;;;11.43;7.95;;;14.80;39.80;;;;;;7356976;32;20126;-69
2022/03/09 11:02:06;;;;;;;11.70;7.62;;;13.70;41.00;;;;;;7357705;32;20744;-60
2022/03/09 11:06:08;;;;;;;12.88;7.75;;;13.20;42.70;;;;;;7360612;32;20305;-60
2022/03/09 11:10:12;;;;;;;10.68;7.35;;;12.60;43.60;;;;;;7365659;32;20367;-61
2022/03/09 11:14:15;;;;;;;11.25;7.22;;;12.10;44.80;;;;;;7361024;32;20780;-60
2022/03/09 11:18:24;;;;;;;12.40;7.45;;;11.90;44.60;;;;;;7359206;32;20119;-62
2022/03/09 11:22:26;;;;;;;10.88;7.80;;;11.80;45.90;;;;;;7361192;32;20123;-67
2022/03/09 11:26:29;;;;;;;12.88;7.10;;;11.60;45.60;;;;;;7344435;32;20198;-60
2022/03/09 11:30:33;;;;;;;9.57;7.22;;;11.80;45.90;;;;;;7360779;32;20119;-60
2022/03/09 11:34:46;;;;;;;11.10;7.80;;;11.80;45.50;;;;;;7366454;32;20119;-60
2022/03/09 11:38:55;;;;;;;12.77;8.10;;;12.30;44.70;;;;;;7363170;32;20196;-60
2022/03/09 11:43:27;;;;;;;10.60;7.95;;;12.50;44.40;;;;;;7363304;32;20136;-62
2022/03/09 11:47:59;;;;;;;12.00;7.65;;;13.30;42.90;;;;;;7354554;32;20542;-61
2022/03/09 11:52:08;;;;;;;12.55;7.57;;;14.40;42.50;;;;;;7368957;32;20498;-59
2022/03/09 11:56:35;;;;;;;11.25;8.43;;;15.40;39.70;;;;;;7360231;32;20130;-70
2022/03/09 12:00:40;;;;;;;12.30;8.20;;;15.90;38.10;;;;;;7357340;32;20148;-66
2022/03/09 12:04:42;;;;;;;12.48;8.55;;;16.30;38.00;;;;;;7366620;32;20738;-62
2022/03/09 12:08:45;;;;;;;9.90;8.57;;;16.60;36.30;;;;;;7366313;32;20219;-63
2022/03/09 12:13:09;;;;;;;14.75;7.97;;;16.60;36.20;;;;;;7362148;32;20230;-60
2022/03/09 12:17:43;;;;;;;10.40;8.60;;;16.60;36.20;;;;;;7361987;32;20133;-61
2022/03/09 12:21:49;;;;;;;14.13;9.02;;;16.20;37.10;;;;;;7359911;32;20198;-62
2022/03/09 12:25:51;;;;;;;10.07;8.60;;;16.90;35.30;;;;;;7358671;32;20133;-61
2022/03/09 12:29:53;;;;;;;11.48;8.45;;;16.80;35.00;;;;;;7362217;32;20329;-61
2022/03/09 12:33:55;;;;;;;11.27;8.85;;;16.80;34.30;;;;;;7359161;32;20352;-61
2022/03/09 12:37:57;;;;;;;11.00;8.85;;;16.90;34.40;;;;;;7362259;32;20179;-70
2022/03/09 12:42:00;;;;;;;12.43;8.65;;;16.90;34.20;;;;;;7360449;32;20751;-60
2022/03/09 12:46:02;;;;;;;11.27;8.45;;;16.50;35.40;;;;;;7365463;32;20111;-62
2022/03/09 12:50:05;;;;;;;12.45;8.13;;;16.30;36.90;;;;;;7358078;32;20533;-62
2022/03/09 12:54:06;;;;;;;10.73;8.55;;;16.20;36.50;;;;;;7360523;32;20222;-60
2022/03/09 12:58:08;;;;;;;12.90;8.05;;;16.10;36.50;;;;;;7361274;32;20163;-68
2022/03/09 13:02:10;;;;;;;12.30;8.55;;;16.00;37.30;;;;;;7361444;32;20186;-62
2022/03/09 13:06:29;;;;;;;12.98;9.05;;;15.50;36.00;;;;;;7353391;32;20905;-62
2022/03/09 13:10:48;;;;;;;11.65;8.10;;;15.70;36.50;;;;;;7352339;32;20278;-71
2022/03/09 13:14:53;;;;;;;11.55;8.20;;;15.90;38.00;;;;;;7359978;32;22273;-60
2022/03/09 13:19:00;;;;;;;15.52;9.10;;;16.10;35.90;;;;;;7351640;32;20145;-60
2022/03/09 13:23:02;;;;;;;;;;;16.20;34.80;;;;;;7352384;32;20103;-69
2022/03/09 13:27:17;;;;;;;10.77;8.63;;;16.00;36.50;;;;;;7359781;32;20097;-61
2022/03/09 13:31:20;;;;;;;13.38;9.10;;;16.40;35.10;;;;;;7362891;32;20647;-60
2022/03/09 13:35:24;;;;;;;13.52;9.80;;;16.60;34.30;;;;;;7361258;32;20202;-68
2022/03/09 13:39:43;;;;;;;11.68;8.65;;;16.80;32.50;;;;;;7361161;32;21101;-61
2022/03/09 13:43:45;;;;;;;11.38;8.50;;;17.30;33.70;;;;;;7365791;32;20111;-60
2022/03/09 13:47:55;;;;;;;12.43;9.07;;;17.60;32.10;;;;;;7352351;32;20214;-68
2022/03/09 13:51:57;;;;;;;12.18;8.52;;;17.90;31.40;;;;;;7362387;32;20111;-60
2022/03/09 13:56:00;;;;;;;13.93;9.52;;;17.70;31.40;;;;;;7360955;32;20133;-60
2022/03/09 14:00:24;;;;;;;14.73;8.77;;;18.20;31.20;;;;;;7354224;32;20186;-65
2022/03/09 14:04:26;;;;;;;12.77;9.63;;;18.50;29.80;;;;;;7361692;32;20186;-62
2022/03/09 14:08:37;;;;;;;12.32;9.57;;;18.30;30.70;;;;;;7364307;32;20137;-61
2022/03/09 14:12:55;;;;;;;10.88;8.95;;;18.60;30.90;;;;;;7362937;32;20102;-59
2022/03/09 14:16:58;;;;;;;11.50;8.75;;;19.10;30.00;;;;;;7361047;32;20142;-69
2022/03/09 14:21:01;;;;;;;14.23;9.15;;;18.60;30.00;;;;;;7360744;32;20616;-61
2022/03/09 14:25:03;;;;;;;14.20;9.05;;;18.30;31.50;;;;;;7360277;32;20971;-62
2022/03/09 14:29:05;;;;;;;14.15;8.52;;;18.80;30.00;;;;;;7362641;32;20118;-62
2022/03/09 14:33:07;;;;;;;9.43;8.43;;;19.20;30.20;;;;;;7359299;32;20166;-64
2022/03/09 14:37:11;;;;;;;15.75;8.45;;;19.00;30.40;;;;;;7364449;32;20165;-61
2022/03/09 14:41:14;;;;;;;11.30;7.50;;;18.40;31.00;;;;;;7357820;32;20662;-59
2022/03/09 14:45:19;;;;;;;12.40;8.00;;;18.10;32.90;;;;;;7354939;32;20197;-61
2022/03/09 14:49:21;;;;;;;12.40;8.73;;;18.60;32.60;;;;;;7355094;32;20158;-61
2022/03/09 14:53:28;;;;;;;12.07;8.35;;;17.80;32.50;;;;;;7364875;32;20201;-60
2022/03/09 14:57:30;;;;;;;;;;;17.00;32.80;;;;;;7366169;32;20126;-69
2022/03/09 15:01:32;;;;;;;12.98;8.23;;;15.80;35.80;;;;;;7363043;32;20018;-61
2022/03/09 15:05:34;;;;;;;12.57;8.23;;;15.40;37.20;;;;;;7356134;32;20504;-69
2022/03/09 15:09:36;;;;;;;11.75;7.62;;;15.00;38.50;;;;;;7363373;32;20134;-62
2022/03/09 15:13:40;;;;;;;12.63;8.27;;;14.90;37.90;;;;;;7369833;32;20130;-60
2022/03/09 15:17:41;;;;;;;12.32;7.37;;;14.20;36.60;;;;;;7360868;32;20338;-62
2022/03/09 15:21:44;;;;;;;10.35;7.57;;;13.90;37.80;;;;;;7356803;32;20210;-60
2022/03/09 15:25:46;;;;;;;10.88;7.55;;;13.90;37.80;;;;;;7360553;32;20165;-68
2022/03/09 15:29:47;;;;;;;10.45;7.55;;;13.80;39.00;;;;;;7364330;32;20187;-61
2022/03/09 15:33:49;;;;;;;10.98;7.45;;;13.80;37.70;;;;;;7361251;32;20347;-59
2022/03/09 15:37:51;;;;;;;12.82;7.57;;;13.40;37.60;;;;;;7358116;32;20825;-60
2022/03/09 15:41:53;;;;;;;15.07;8.13;;;13.20;38.00;;;;;;7360851;32;20823;-61
2022/03/09 15:45:57;;;;;;;12.37;7.18;;;13.10;39.60;;;;;;7365803;32;20215;-67
2022/03/09 15:49:59;;;;;;;12.52;7.35;;;12.90;40.70;;;;;;7352654;32;20155;-61
2022/03/09 15:54:02;;;;;;;9.90;7.03;;;12.60;41.30;;;;;;7356760;32;20148;-63
2022/03/09 15:58:04;;;;;;;10.60;7.55;;;12.60;41.70;;;;;;7369656;32;20267;-61
2022/03/09 16:02:06;;;;;;;11.60;7.95;;;12.50;42.30;;;;;;7351490;32;20106;-61
2022/03/09 16:06:09;;;;;;;12.18;7.57;;;12.50;41.40;;;;;;7348417;32;20261;-61
2022/03/09 16:10:15;;;;;;;14.18;7.32;;;12.40;41.80;;;;;;7357104;32;20110;-62
2022/03/09 16:14:17;;;;;;;9.55;6.93;;;12.40;40.90;;;;;;7363235;32;20134;-68
2022/03/09 16:18:19;;;;;;;11.32;7.60;;;12.20;42.80;;;;;;7352778;32;20191;-61
2022/03/09 16:22:22;;;;;;;12.40;7.45;;;12.10;42.20;;;;;;7349206;32;20107;-63
2022/03/09 16:26:27;;;;;;;10.30;7.20;;;12.00;43.10;;;;;;7350203;32;20182;-63
2022/03/09 16:30:29;;;;;;;10.43;7.18;;;11.90;43.10;;;;;;7352337;32;20321;-62
2022/03/09 16:34:33;;;;;;;10.48;6.72;;;11.80;42.90;;;;;;7356403;32;20119;-69
2022/03/09 16:38:41;;;;;;;10.45;7.60;;;11.70;43.70;;;;;;7366312;32;20331;-62
2022/03/09 16:42:46;;;;;;;14.02;7.22;;;11.60;43.50;;;;;;7356665;32;20572;-62
2022/03/09 16:46:48;;;;;;;10.63;6.55;;;11.40;43.40;;;;;;7346856;32;20177;-67
2022/03/09 16:50:50;;;;;;;11.32;6.78;;;11.20;44.10;;;;;;7366168;32;20167;-59
2022/03/09 16:54:52;;;;;;;10.73;6.37;;;11.00;45.30;;;;;;7364126;32;20107;-60
2022/03/09 16:58:56;;;;;;;10.82;7.12;;;11.00;46.20;;;;;;7367894;32;20103;-60
2022/03/09 17:02:58;;;;;;;13.25;6.87;;;10.80;46.60;;;;;;7361606;32;20608;-62
2022/03/09 17:07:01;;;;;;;12.32;7.20;;;10.50;47.10;;;;;;7356002;32;20261;-62
2022/03/09 17:11:03;;;;;;;10.88;7.10;;;10.30;49.00;;;;;;7359749;32;20278;-59
2022/03/09 17:15:06;;;;;;;10.18;6.55;;;10.10;49.90;;;;;;7366221;32;20669;-69
2022/03/09 17:19:08;;;;;;;12.35;6.57;;;9.80;50.70;;;;;;7365552;32;22410;-62
2022/03/09 17:23:10;;;;;;;12.80;7.43;;;9.60;51.40;;;;;;7353952;32;20125;-62
2022/03/09 17:27:11;;;;;;;14.43;7.80;;;9.30;51.00;;;;;;7367340;32;20519;-62
2022/03/09 17:31:13;;;;;;;13.05;7.45;;;9.20;52.50;;;;;;7362382;32;20170;-62
2022/03/09 17:35:15;;;;;;;11.73;7.15;;;9.00;53.50;;;;;;7354080;32;20119;-61
2022/03/09 17:39:20;;;;;;;10.98;6.55;;;8.80;53.80;;;;;;7356523;32;20113;-60
2022/03/09 17:43:22;;;;;;;15.73;7.40;;;8.40;56.60;;;;;;7360011;32;20110;-60
2022/03/09 17:47:24;;;;;;;14.57;6.95;;;8.00;59.70;;;;;;7363460;32;20297;-61
2022/03/09 17:51:25;;;;;;;11.75;7.07;;;7.60;63.20;;;;;;7354300;32;20529;-61
2022/03/09 17:55:27;;;;;;;11.90;6.78;;;7.30;66.70;;;;;;7347876;32;20561;-60
2022/03/09 17:59:30;;;;;;;13.68;6.28;;;6.90;73.90;;;;;;7356093;32;20166;-60
2022/03/09 18:03:58;;;;;;;17.75;9.15;;;6.80;79.80;;;;;;7371659;31;20198;-59
2022/03/09 18:07:59;;;;;;;19.80;9.38;;;6.40;90.50;;;;;;7329272;32;20740;-61
2022/03/09 18:12:21;;;;;;;14.70;8.35;;;6.10;96.70;;;;;;7325956;32;20107;-59
2022/03/09 18:16:23;;;;;;;15.88;7.40;;;5.80;99.90;;;;;;7332201;32;20308;-60
2022/03/09 18:20:26;;;;;;;11.80;6.93;;;5.50;99.90;;;;;;7327298;32;20115;-61
2022/03/09 18:24:28;;;;;;;14.40;7.32;;;5.20;99.90;;;;;;7331882;32;20122;-60
2022/03/09 18:28:29;;;;;;;13.00;7.47;;;5.20;99.90;;;;;;7332519;32;20218;-60
2022/03/09 18:32:31;;;;;;;12.65;7.78;;;4.90;99.90;;;;;;7332634;32;20542;-60
2022/03/09 18:36:34;;;;;;;15.85;8.63;;;4.80;99.90;;;;;;7332231;32;20153;-61
2022/03/09 18:40:37;;;;;;;12.85;7.87;;;4.50;99.90;;;;;;7329827;32;20216;-60
2022/03/09 18:44:39;;;;;;;22.60;12.63;;;4.40;99.90;;;;;;7335035;32;20133;-61
2022/03/09 18:48:40;;;;;;;11.80;7.35;;;4.30;99.90;;;;;;7332046;32;20103;-60
2022/03/09 18:52:42;;;;;;;15.13;7.87;;;4.20;99.90;;;;;;7331888;32;20742;-61
2022/03/09 18:56:44;;;;;;;14.02;8.25;;;4.00;99.90;;;;;;7328550;32;20129;-62
2022/03/09 19:00:46;;;;;;;14.60;7.57;;;3.80;99.90;;;;;;7336873;32;20112;-61
2022/03/09 19:04:48;;;;;;;16.15;8.00;;;3.80;99.90;;;;;;7330481;32;20249;-59
2022/03/09 19:08:50;;;;;;;14.00;7.70;;;3.50;99.90;;;;;;7327434;32;20117;-60
2022/03/09 19:12:52;;;;;;;16.55;7.90;;;3.50;99.90;;;;;;7314858;32;20123;-60
2022/03/09 19:16:54;;;;;;;15.43;7.65;;;3.50;99.90;;;;;;7318276;32;20104;-62
2022/03/09 19:20:56;;;;;;;15.60;7.85;;;3.40;99.90;;;;;;7316661;32;20096;-61
2022/03/09 19:24:57;;;;;;;15.40;7.60;;;3.30;99.90;;;;;;7321171;32;20127;-61
2022/03/09 19:29:00;;;;;;;17.52;8.73;;;3.20;99.90;;;;;;7306077;32;20133;-62
2022/03/09 19:33:05;;;;;;;16.73;7.65;;;3.10;99.90;;;;;;7317185;32;20131;-61
2022/03/09 19:37:09;;;;;;;25.23;12.27;;;3.00;99.90;;;;;;7314649;32;20217;-61
2022/03/09 19:41:17;;;;;;;13.55;8.23;;;2.90;99.90;;;;;;7313123;32;20229;-61
2022/03/09 19:45:22;;;;;;;16.33;8.15;;;2.90;99.90;;;;;;7312778;32;20293;-61
2022/03/09 19:49:27;;;;;;;13.27;7.72;;;2.80;99.90;;;;;;7298258;32;20107;-60
2022/03/09 19:53:31;;;;;;;15.40;8.05;;;2.80;99.90;;;;;;7315522;32;20131;-59
2022/03/09 19:57:35;;;;;;;16.55;8.18;;;2.80;99.90;;;;;;7316391;32;20190;-60
2022/03/09 20:01:36;;;;;;;14.63;7.15;;;2.70;99.90;;;;;;7314425;32;20235;-60
2022/03/09 20:05:38;;;;;;;14.35;7.53;;;2.70;99.90;;;;;;7307031;32;20104;-60
2022/03/09 20:09:40;;;;;;;11.27;6.95;;;2.70;99.90;;;;;;7317986;32;20099;-61
2022/03/09 20:13:43;;;;;;;16.02;7.80;;;2.70;99.90;;;;;;7317601;32;20112;-59
2022/03/09 20:17:45;;;;;;;17.33;8.52;;;2.70;99.90;;;;;;7319767;32;20125;-62
2022/03/09 20:21:47;;;;;;;15.30;9.02;;;2.80;99.90;;;;;;7314949;32;20190;-60
2022/03/09 20:25:49;;;;;;;12.93;7.93;;;2.90;99.90;;;;;;7316330;32;20135;-60
2022/03/09 20:29:50;;;;;;;14.20;7.50;;;2.80;99.90;;;;;;7311479;32;20278;-60
2022/03/09 20:33:52;;;;;;;15.10;7.93;;;3.00;99.90;;;;;;7316258;32;20641;-60
2022/03/09 20:37:54;;;;;;;14.98;8.63;;;3.10;99.90;;;;;;7314134;32;20647;-61
2022/03/09 20:41:56;;;;;;;12.98;7.37;;;3.10;99.90;;;;;;7314315;32;20104;-60
2022/03/09 20:46:00;;;;;;;14.30;7.25;;;3.20;99.90;;;;;;7317934;32;20130;-61
2022/03/09 20:50:02;;;;;;;15.50;8.10;;;3.10;99.90;;;;;;7317580;32;20302;-60
2022/03/09 20:54:04;;;;;;;14.02;8.45;;;3.00;99.90;;;;;;7311574;32;20861;-61
2022/03/09 20:58:07;;;;;;;14.05;8.35;;;3.00;99.90;;;;;;7315714;32;20104;-61
2022/03/09 21:02:09;;;;;;;15.25;7.60;;;2.90;99.90;;;;;;7307587;32;20139;-62
2022/03/09 21:06:11;;;;;;;13.48;8.27;;;2.90;99.90;;;;;;7318324;32;20130;-61
2022/03/09 21:10:13;;;;;;;14.10;7.82;;;2.90;99.90;;;;;;7311885;32;20142;-60